Private Wetterstation Wechselburg
Wetterdaten: Woche 02.01.23 - 08.01.23 (KW1)
Datum Zeit Temp. +2m Bodentemp. Temp.+5cm Temp. Wind Windchill X Diff Temp. Feuchte +2m Feuchte +5cm Luftdruck Regen Wind Richtung Sonnenschein Taupunkt Windchill Windben
02.01.2023 00:00 10,2 C 11,7 C 8,6 C 10,5 C 10,5 C 0,3 C 79 % 84 % 1016,5 hPa 0,0 l/m 0,0 km/h (0 Bft) N 0,00 h 6,8 C 10,5 C 0,0 km/h (0 Bft)
02.01.2023 01:00 10,9 C 11,6 C 8,8 C 11,6 C 11,6 C 0,7 C 78 % 84 % 1015,6 hPa 0,0 l/m 1,5 km/h (1 Bft) SO 0,00 h 7,3 C 11,6 C 3,2 km/h (1 Bft)
02.01.2023 02:00 14,9 C 11,5 C 12,2 C 15,1 C 15,1 C 0,3 C 63 % 71 % 1015,4 hPa 0,0 l/m 3,8 km/h (1 Bft) O-SO 0,00 h 7,9 C 15,1 C 3,6 km/h (1 Bft)
02.01.2023 03:00 15,7 C 11,5 C 13,3 C 15,7 C 15,6 C 0,0 C 58 % 63 % 1015,2 hPa 0,0 l/m 3,9 km/h (1 Bft) SW 0,00 h 7,3 C 15,6 C 6,5 km/h (2 Bft)
02.01.2023 04:00 15,8 C 11,5 C 13,1 C 15,7 C 15,6 C 0,0 C 55 % 60 % 1014,4 hPa 0,0 l/m 5,7 km/h (1 Bft) S 0,00 h 6,7 C 15,6 C 5,9 km/h (2 Bft)
02.01.2023 05:00 15,5 C 11,5 C 12,2 C 15,3 C 14,9 C 0,0 C 55 % 60 % 1014,6 hPa 0,0 l/m 1,9 km/h (1 Bft) S 0,00 h 6,5 C 14,9 C 3,2 km/h (1 Bft)
02.01.2023 06:00 15,4 C 11,5 C 12,1 C 15,3 C 15,0 C 0,0 C 54 % 60 % 1014,4 hPa 0,0 l/m 3,7 km/h (1 Bft) S-SO 0,00 h 6,2 C 15,0 C 5,6 km/h (1 Bft)
02.01.2023 07:00 15,1 C 11,5 C 11,9 C 15,0 C 14,8 C 0,0 C 56 % 61 % 1014,6 hPa 0,0 l/m 3,2 km/h (1 Bft) S-SO 0,00 h 6,3 C 14,8 C 4,0 km/h (1 Bft)
02.01.2023 08:00 14,7 C 11,5 C 11,7 C 14,6 C 14,5 C 0,0 C 57 % 62 % 1014,5 hPa 0,0 l/m 2,3 km/h (1 Bft) S 0,00 h 6,2 C 14,5 C 2,8 km/h (1 Bft)
02.01.2023 09:00 14,4 C 11,5 C 11,8 C 14,4 C 14,3 C 0,0 C 57 % 61 % 1015,0 hPa 0,0 l/m 0,7 km/h (0 Bft) O 0,00 h 6,0 C 14,3 C 1,0 km/h (0 Bft)
02.01.2023 10:00 15,0 C 11,5 C 12,5 C 15,3 C 15,3 C 0,3 C 56 % 58 % 1015,3 hPa 0,0 l/m 2,6 km/h (1 Bft) S 0,00 h 6,2 C 15,3 C 5,4 km/h (1 Bft)
02.01.2023 11:00 15,7 C 11,6 C 13,6 C 16,8 C 16,8 C 1,1 C 54 % 55 % 1015,5 hPa 0,0 l/m 4,5 km/h (1 Bft) SO 0,00 h 6,4 C 16,8 C 8,2 km/h (2 Bft)
02.01.2023 12:00 16,1 C 11,6 C 14,0 C 16,9 C 16,9 C 0,8 C 52 % 54 % 1015,5 hPa 0,0 l/m 3,9 km/h (1 Bft) SO 0,00 h 6,2 C 16,9 C 4,1 km/h (1 Bft)
02.01.2023 13:00 16,6 C 11,6 C 14,8 C 18,1 C 18,1 C 1,5 C 51 % 52 % 1015,6 hPa 0,0 l/m 5,1 km/h (1 Bft) SW 0,00 h 6,3 C 18,1 C 8,0 km/h (2 Bft)
02.01.2023 14:00 16,0 C 11,7 C 14,1 C 16,5 C 16,5 C 0,5 C 53 % 54 % 1015,9 hPa 0,0 l/m 4,2 km/h (1 Bft) SW 0,00 h 6,4 C 16,5 C 5,4 km/h (1 Bft)
02.01.2023 15:00 15,5 C 11,7 C 13,1 C 15,7 C 15,7 C 0,2 C 55 % 58 % 1016,3 hPa 0,0 l/m 4,3 km/h (1 Bft) SW 0,00 h 6,5 C 15,7 C 5,9 km/h (2 Bft)
02.01.2023 16:00 15,0 C 11,8 C 12,7 C 14,9 C 14,9 C 0,0 C 57 % 59 % 1016,9 hPa 0,0 l/m 3,6 km/h (1 Bft) S 0,00 h 6,5 C 14,9 C 4,2 km/h (1 Bft)
02.01.2023 17:00 14,4 C 11,8 C 12,3 C 14,4 C 14,3 C 0,0 C 59 % 61 % 1017,5 hPa 0,0 l/m 3,8 km/h (1 Bft) SW 0,00 h 6,6 C 14,3 C 6,3 km/h (2 Bft)
02.01.2023 18:00 13,8 C 11,8 C 11,7 C 13,9 C 13,9 C 0,1 C 63 % 64 % 1018,0 hPa 0,0 l/m 5,2 km/h (1 Bft) S 0,00 h 6,8 C 13,9 C 6,2 km/h (2 Bft)
02.01.2023 19:00 13,4 C 11,8 C 11,3 C 13,4 C 13,4 C 0,1 C 66 % 68 % 1018,2 hPa 0,0 l/m 5,6 km/h (1 Bft) SW 0,00 h 7,2 C 13,4 C 7,4 km/h (2 Bft)
02.01.2023 20:00 11,9 C 12,1 C 9,9 C 11,8 C 11,4 C 0,0 C 74 % 77 % 1018,9 hPa 0,0 l/m 3,3 km/h (1 Bft) S 0,00 h 7,3 C 11,4 C 5,1 km/h (1 Bft)
02.01.2023 21:00 9,6 C 12,3 C 7,7 C 9,4 C 9,2 C 0,0 C 85 % 89 % 1020,4 hPa 0,7 l/m 3,0 km/h (1 Bft) SW 0,00 h 7,1 C 9,2 C 3,9 km/h (1 Bft)
02.01.2023 22:00 9,2 C 12,2 C 7,2 C 9,1 C 8,8 C 0,0 C 87 % 92 % 1021,4 hPa 0,0 l/m 4,2 km/h (1 Bft) SW 0,00 h 7,1 C 8,8 C 6,0 km/h (2 Bft)
02.01.2023 23:00 9,4 C 11,9 C 7,0 C 9,2 C 8,7 C 0,0 C 86 % 92 % 1022,0 hPa 0,0 l/m 6,1 km/h (2 Bft) W-SW 0,00 h 7,2 C 8,0 C 7,1 km/h (2 Bft)
03.01.2023 00:00 8,9 C 11,9 C 6,1 C 8,6 C 7,9 C 0,0 C 85 % 92 % 1022,4 hPa 0,0 l/m 5,2 km/h (1 Bft) S-SW 0,00 h 6,4 C 7,3 C 6,5 km/h (2 Bft)
03.01.2023 01:00 8,1 C 11,8 C 5,2 C 7,7 C 7,1 C 0,0 C 84 % 93 % 1022,7 hPa 0,0 l/m 4,4 km/h (1 Bft) S-SW 0,00 h 5,6 C 6,7 C 5,7 km/h (1 Bft)
03.01.2023 02:00 7,8 C 11,6 C 4,7 C 7,5 C 7,0 C 0,0 C 83 % 93 % 1023,7 hPa 0,0 l/m 4,3 km/h (1 Bft) S 0,00 h 5,1 C 6,8 C 7,3 km/h (2 Bft)
03.01.2023 03:00 7,6 C 11,5 C 4,8 C 7,5 C 7,4 C 0,0 C 83 % 92 % 1023,8 hPa 0,0 l/m 1,7 km/h (1 Bft) SW 0,00 h 4,9 C 7,4 C 2,9 km/h (1 Bft)
03.01.2023 04:00 7,1 C 11,4 C 4,2 C 6,9 C 6,6 C 0,0 C 83 % 92 % 1024,1 hPa 0,0 l/m 1,9 km/h (1 Bft) W-SW 0,00 h 4,5 C 6,6 C 2,7 km/h (1 Bft)
03.01.2023 05:00 6,9 C 11,3 C 4,0 C 6,7 C 6,4 C 0,0 C 84 % 92 % 1024,6 hPa 0,0 l/m 1,1 km/h (1 Bft) SW 0,00 h 4,3 C 6,4 C 1,5 km/h (1 Bft)
03.01.2023 06:00 6,9 C 11,1 C 4,1 C 6,9 C 6,8 C 0,0 C 83 % 92 % 1025,8 hPa 0,0 l/m 1,1 km/h (1 Bft) NO 0,00 h 4,2 C 6,8 C 1,7 km/h (1 Bft)
03.01.2023 07:00 7,1 C 11,0 C 4,5 C 7,2 C 7,2 C 0,1 C 83 % 92 % 1025,4 hPa 0,0 l/m 1,6 km/h (1 Bft) SW 0,00 h 4,4 C 7,2 C 2,0 km/h (1 Bft)
03.01.2023 08:00 6,9 C 10,9 C 4,1 C 6,8 C 6,5 C 0,0 C 82 % 92 % 1025,7 hPa 0,0 l/m 1,8 km/h (1 Bft) S-SW 0,00 h 4,0 C 6,5 C 3,0 km/h (1 Bft)
03.01.2023 09:00 6,1 C 10,9 C 2,9 C 5,9 C 5,4 C 0,0 C 82 % 92 % 1026,4 hPa 0,0 l/m 0,5 km/h (0 Bft) SW 0,00 h 3,3 C 5,4 C 1,3 km/h (1 Bft)
03.01.2023 10:00 6,6 C 10,7 C 3,1 C 6,9 C 6,9 C 0,4 C 82 % 93 % 1027,0 hPa 0,0 l/m 1,2 km/h (1 Bft) SW 0,00 h 3,7 C 6,9 C 1,2 km/h (1 Bft)
03.01.2023 11:00 7,6 C 10,6 C 4,6 C 9,5 C 9,5 C 1,9 C 81 % 91 % 1027,1 hPa 0,0 l/m 3,2 km/h (1 Bft) SW 0,00 h 4,5 C 9,5 C 5,8 km/h (1 Bft)
03.01.2023 12:00 8,5 C 10,5 C 5,6 C 9,6 C 9,6 C 1,1 C 77 % 88 % 1026,7 hPa 0,0 l/m 6,0 km/h (2 Bft) S-SW 0,00 h 4,7 C 9,1 C 6,3 km/h (2 Bft)
03.01.2023 13:00 8,8 C 10,5 C 6,4 C 9,7 C 9,7 C 0,9 C 75 % 83 % 1026,8 hPa 0,0 l/m 5,5 km/h (1 Bft) S-SW 0,00 h 4,6 C 9,4 C 7,8 km/h (2 Bft)
03.01.2023 14:00 9,4 C 10,5 C 6,5 C 12,3 C 12,3 C 2,9 C 72 % 81 % 1026,9 hPa 0,0 l/m 5,4 km/h (1 Bft) SW 0,25 h 4,6 C 12,3 C 6,8 km/h (2 Bft)
03.01.2023 15:00 8,6 C 10,4 C 5,8 C 9,2 C 9,0 C 0,6 C 72 % 80 % 1027,0 hPa 0,0 l/m 3,0 km/h (1 Bft) S-SW 0,00 h 3,9 C 9,0 C 2,7 km/h (1 Bft)
03.01.2023 16:00 7,5 C 10,4 C 4,9 C 7,2 C 6,6 C 0,0 C 74 % 82 % 1026,9 hPa 0,0 l/m 1,5 km/h (1 Bft) SO 0,00 h 3,2 C 6,6 C 1,9 km/h (1 Bft)
03.01.2023 17:00 6,5 C 10,3 C 3,3 C 6,2 C 5,4 C 0,0 C 76 % 84 % 1027,8 hPa 0,0 l/m 0,9 km/h (0 Bft) S-SO 0,00 h 2,6 C 5,4 C 0,9 km/h (0 Bft)
03.01.2023 18:00 5,3 C 10,3 C 1,9 C 4,9 C 4,2 C 0,0 C 78 % 87 % 1028,1 hPa 0,0 l/m 0,2 km/h (0 Bft) N 0,00 h 1,8 C 4,2 C 0,6 km/h (0 Bft)
03.01.2023 19:00 5,4 C 10,3 C 2,5 C 5,4 C 5,3 C 0,1 C 80 % 87 % 1028,5 hPa 0,0 l/m 1,9 km/h (1 Bft) S 0,00 h 2,2 C 5,3 C 3,1 km/h (1 Bft)
03.01.2023 20:00 6,0 C 10,2 C 3,4 C 6,1 C 6,1 C 0,1 C 79 % 85 % 1028,9 hPa 0,0 l/m 2,8 km/h (1 Bft) S-SO 0,00 h 2,6 C 6,1 C 4,5 km/h (1 Bft)
03.01.2023 21:00 6,3 C 10,2 C 3,7 C 6,1 C 5,8 C 0,0 C 78 % 84 % 1028,4 hPa 0,0 l/m 3,5 km/h (1 Bft) S 0,00 h 2,7 C 5,8 C 5,1 km/h (1 Bft)
03.01.2023 22:00 6,0 C 10,1 C 3,2 C 5,7 C 5,2 C 0,0 C 79 % 84 % 1028,4 hPa 0,0 l/m 2,0 km/h (1 Bft) O-SO 0,00 h 2,7 C 5,2 C 2,6 km/h (1 Bft)
03.01.2023 23:00 5,7 C 10,1 C 2,7 C 5,3 C 4,5 C 0,0 C 81 % 86 % 1028,2 hPa 0,0 l/m 3,5 km/h (1 Bft) S-SO 0,00 h 2,6 C 4,5 C 5,6 km/h (1 Bft)
04.01.2023 00:00 5,2 C 10,0 C 2,2 C 4,9 C 4,4 C 0,0 C 82 % 88 % 1027,8 hPa 0,0 l/m 1,8 km/h (1 Bft) SO 0,00 h 2,5 C 4,4 C 3,6 km/h (1 Bft)
04.01.2023 01:00 5,3 C 9,9 C 1,9 C 4,9 C 4,3 C 0,0 C 82 % 89 % 1027,0 hPa 0,0 l/m 2,7 km/h (1 Bft) S 0,00 h 2,5 C 4,2 C 4,1 km/h (1 Bft)
04.01.2023 02:00 4,9 C 9,9 C 1,4 C 4,6 C 3,9 C 0,0 C 83 % 90 % 1026,5 hPa 0,0 l/m 1,7 km/h (1 Bft) SO 0,00 h 2,2 C 3,9 C 3,2 km/h (1 Bft)
04.01.2023 03:00 5,1 C 9,8 C 1,4 C 4,6 C 3,7 C 0,0 C 83 % 90 % 1025,4 hPa 0,0 l/m 3,4 km/h (1 Bft) S-SO 0,00 h 2,5 C 3,3 C 5,4 km/h (1 Bft)
04.01.2023 04:00 5,8 C 9,6 C 2,4 C 5,2 C 4,0 C 0,0 C 82 % 89 % 1024,5 hPa 0,0 l/m 6,4 km/h (2 Bft) S-SO 0,00 h 3,0 C 2,5 C 9,8 km/h (2 Bft)
04.01.2023 05:00 6,4 C 9,5 C 3,6 C 5,8 C 4,5 C 0,0 C 80 % 87 % 1023,4 hPa 0,0 l/m 7,6 km/h (2 Bft) S-SO 0,00 h 3,3 C 2,7 C 11,4 km/h (2 Bft)
04.01.2023 06:00 6,8 C 9,5 C 4,2 C 6,3 C 5,1 C 0,0 C 79 % 85 % 1022,6 hPa 0,0 l/m 8,0 km/h (2 Bft) S 0,00 h 3,4 C 3,3 C 9,9 km/h (2 Bft)
04.01.2023 07:00 7,4 C 9,4 C 4,3 C 7,0 C 5,5 C 0,0 C 75 % 85 % 1022,0 hPa 0,0 l/m 10,3 km/h (2 Bft) S 0,00 h 3,3 C 3,3 C 14,1 km/h (3 Bft)
04.01.2023 08:00 7,5 C 9,4 C 5,4 C 7,1 C 5,8 C 0,0 C 75 % 79 % 1021,4 hPa 0,0 l/m 8,0 km/h (2 Bft) SO 0,00 h 3,3 C 4,1 C 15,6 km/h (3 Bft)
04.01.2023 09:00 7,2 C 9,3 C 5,1 C 6,5 C 4,5 C 0,0 C 76 % 81 % 1020,4 hPa 0,0 l/m 10,9 km/h (2 Bft) S 0,00 h 3,3 C 1,9 C 18,0 km/h (3 Bft)
04.01.2023 10:00 7,1 C 9,3 C 5,4 C 6,5 C 4,7 C 0,0 C 76 % 80 % 1019,8 hPa 0,0 l/m 10,2 km/h (2 Bft) SO 0,00 h 3,2 C 2,3 C 13,9 km/h (3 Bft)
04.01.2023 11:00 7,2 C 9,3 C 5,2 C 6,9 C 5,8 C 0,0 C 77 % 81 % 1019,3 hPa 0,0 l/m 9,1 km/h (2 Bft) O-SO 0,00 h 3,4 C 3,9 C 15,5 km/h (3 Bft)
04.01.2023 12:00 7,5 C 9,2 C 5,6 C 7,3 C 6,4 C 0,0 C 77 % 80 % 1018,2 hPa 0,0 l/m 9,5 km/h (2 Bft) O-SO 0,00 h 3,8 C 4,4 C 13,6 km/h (3 Bft)
04.01.2023 13:00 7,6 C 9,2 C 5,9 C 7,2 C 6,1 C 0,0 C 78 % 81 % 1017,5 hPa 0,0 l/m 9,3 km/h (2 Bft) S 0,00 h 4,1 C 4,1 C 13,7 km/h (3 Bft)
04.01.2023 14:00 7,8 C 9,3 C 6,2 C 7,6 C 6,7 C 0,0 C 79 % 82 % 1016,4 hPa 0,0 l/m 9,8 km/h (2 Bft) S-SO 0,00 h 4,5 C 4,8 C 16,0 km/h (3 Bft)
04.01.2023 15:00 8,0 C 9,4 C 6,2 C 7,5 C 6,6 C 0,0 C 81 % 83 % 1015,9 hPa 0,0 l/m 7,4 km/h (2 Bft) W-SW 0,00 h 4,9 C 5,1 C 9,4 km/h (2 Bft)
04.01.2023 16:00 8,0 C 9,4 C 5,9 C 7,3 C 5,9 C 0,0 C 83 % 88 % 1015,3 hPa 0,0 l/m 7,3 km/h (2 Bft) S-SO 0,00 h 5,3 C 4,4 C 9,8 km/h (2 Bft)
04.01.2023 17:00 8,4 C 9,5 C 6,3 C 8,0 C 7,2 C 0,0 C 84 % 87 % 1015,0 hPa 0,0 l/m 7,1 km/h (2 Bft) S 0,00 h 5,8 C 5,9 C 9,2 km/h (2 Bft)
04.01.2023 18:00 9,0 C 9,5 C 6,9 C 8,8 C 8,3 C 0,0 C 82 % 86 % 1014,6 hPa 0,0 l/m 7,3 km/h (2 Bft) SO 0,00 h 6,2 C 7,2 C 12,1 km/h (2 Bft)
04.01.2023 19:00 9,7 C 9,4 C 7,4 C 9,5 C 9,0 C 0,0 C 80 % 84 % 1013,8 hPa 0,0 l/m 7,6 km/h (2 Bft) W-SW 0,00 h 6,4 C 8,0 C 11,0 km/h (2 Bft)
04.01.2023 20:00 10,1 C 9,5 C 7,9 C 9,8 C 9,0 C 0,0 C 79 % 82 % 1013,1 hPa 0,0 l/m 9,6 km/h (2 Bft) S-SW 0,00 h 6,7 C 7,5 C 16,4 km/h (3 Bft)
04.01.2023 21:00 10,0 C 9,7 C 7,9 C 9,6 C 8,6 C 0,0 C 82 % 85 % 1013,1 hPa 0,0 l/m 8,2 km/h (2 Bft) O-NO 0,00 h 7,0 C 7,4 C 12,5 km/h (3 Bft)
04.01.2023 22:00 10,2 C 9,8 C 8,2 C 10,0 C 9,4 C 0,0 C 82 % 85 % 1012,4 hPa 0,0 l/m 7,4 km/h (2 Bft) O-NO 0,00 h 7,2 C 8,5 C 10,3 km/h (2 Bft)
04.01.2023 23:00 10,8 C 9,7 C 8,7 C 10,6 C 9,6 C 0,0 C 79 % 83 % 1012,0 hPa 0,0 l/m 10,2 km/h (2 Bft) SW 0,00 h 7,4 C 8,3 C 15,0 km/h (3 Bft)
05.01.2023 00:00 10,9 C 9,8 C 8,3 C 10,6 C 9,7 C 0,0 C 78 % 83 % 1011,8 hPa 0,0 l/m 8,6 km/h (2 Bft) S 0,00 h 7,3 C 9,0 C 12,7 km/h (3 Bft)
05.01.2023 01:00 10,8 C 9,9 C 8,6 C 10,5 C 9,8 C 0,0 C 78 % 81 % 1011,5 hPa 0,0 l/m 9,3 km/h (2 Bft) SW 0,00 h 7,0 C 8,7 C 12,7 km/h (3 Bft)
05.01.2023 02:00 10,8 C 9,9 C 8,5 C 10,5 C 9,8 C 0,0 C 77 % 81 % 1011,5 hPa 0,0 l/m 9,9 km/h (2 Bft) SW 0,00 h 6,9 C 8,8 C 11,4 km/h (2 Bft)
05.01.2023 03:00 11,5 C 9,9 C 9,0 C 11,2 C 10,2 C 0,0 C 70 % 76 % 1011,2 hPa 0,0 l/m 13,1 km/h (3 Bft) SW 0,00 h 6,2 C 10,0 C 16,1 km/h (3 Bft)
05.01.2023 04:00 11,6 C 9,9 C 9,0 C 11,2 C 10,3 C 0,0 C 68 % 73 % 1011,0 hPa 0,0 l/m 12,3 km/h (3 Bft) SW 0,00 h 5,8 C 10,3 C 13,7 km/h (3 Bft)
05.01.2023 05:00 11,2 C 10,0 C 8,9 C 10,8 C 9,6 C 0,0 C 69 % 73 % 1011,1 hPa 0,0 l/m 11,9 km/h (2 Bft) SW 0,00 h 5,8 C 8,3 C 13,9 km/h (3 Bft)
05.01.2023 06:00 10,7 C 10,0 C 8,3 C 10,3 C 9,3 C 0,0 C 71 % 75 % 1012,3 hPa 0,0 l/m 10,1 km/h (2 Bft) S-SW 0,00 h 5,6 C 7,8 C 12,5 km/h (3 Bft)
05.01.2023 07:00 10,3 C 10,1 C 7,8 C 9,9 C 8,7 C 0,0 C 71 % 76 % 1012,4 hPa 0,0 l/m 10,6 km/h (2 Bft) SW 0,00 h 5,3 C 7,0 C 13,3 km/h (3 Bft)
05.01.2023 08:00 10,0 C 10,1 C 7,7 C 9,6 C 8,8 C 0,0 C 73 % 77 % 1012,9 hPa 0,0 l/m 10,1 km/h (2 Bft) SW 0,00 h 5,4 C 7,2 C 10,9 km/h (2 Bft)
05.01.2023 09:00 10,0 C 10,1 C 7,9 C 9,7 C 8,9 C 0,0 C 74 % 78 % 1013,6 hPa 0,0 l/m 10,5 km/h (2 Bft) S 0,00 h 5,6 C 7,3 C 12,7 km/h (3 Bft)
05.01.2023 10:00 10,0 C 10,1 C 8,0 C 9,6 C 8,4 C 0,0 C 75 % 78 % 1014,3 hPa 0,0 l/m 10,6 km/h (2 Bft) S 0,00 h 5,8 C 6,7 C 12,1 km/h (2 Bft)
05.01.2023 11:00 10,2 C 10,1 C 7,8 C 10,0 C 9,1 C 0,0 C 75 % 80 % 1014,8 hPa 0,7 l/m 11,2 km/h (2 Bft) SW 0,00 h 6,0 C 7,5 C 14,5 km/h (3 Bft)
05.01.2023 12:00 10,2 C 10,2 C 8,0 C 9,9 C 8,7 C 0,0 C 76 % 80 % 1015,4 hPa 0,0 l/m 11,6 km/h (2 Bft) SW 0,00 h 6,1 C 6,8 C 15,2 km/h (3 Bft)
05.01.2023 13:00 9,8 C 10,2 C 7,6 C 9,4 C 8,5 C 0,0 C 79 % 84 % 1015,5 hPa 0,0 l/m 10,6 km/h (2 Bft) SW 0,00 h 6,4 C 6,8 C 13,3 km/h (3 Bft)
05.01.2023 14:00 10,2 C 10,2 C 7,9 C 10,1 C 9,2 C 0,1 C 77 % 83 % 1015,9 hPa 0,0 l/m 10,9 km/h (2 Bft) W-SW 0,00 h 6,3 C 8,1 C 14,0 km/h (3 Bft)
05.01.2023 15:00 9,7 C 10,3 C 7,4 C 9,3 C 8,1 C 0,0 C 80 % 85 % 1016,5 hPa 0,0 l/m 9,2 km/h (2 Bft) SW 0,00 h 6,4 C 6,6 C 11,5 km/h (2 Bft)
05.01.2023 16:00 9,4 C 10,3 C 6,8 C 9,1 C 8,4 C 0,0 C 81 % 87 % 1017,5 hPa 0,0 l/m 8,0 km/h (2 Bft) SW 0,00 h 6,2 C 7,1 C 10,6 km/h (2 Bft)
05.01.2023 17:00 9,0 C 10,4 C 6,8 C 8,6 C 7,7 C 0,0 C 83 % 88 % 1018,2 hPa 0,0 l/m 7,8 km/h (2 Bft) SW 0,00 h 6,2 C 6,3 C 9,7 km/h (2 Bft)
05.01.2023 18:00 8,6 C 10,4 C 6,3 C 8,2 C 7,6 C 0,0 C 84 % 88 % 1018,7 hPa 0,0 l/m 5,7 km/h (1 Bft) SW 0,00 h 6,0 C 6,8 C 6,4 km/h (2 Bft)
05.01.2023 19:00 8,6 C 10,4 C 5,9 C 8,3 C 7,6 C 0,0 C 84 % 90 % 1019,4 hPa 0,0 l/m 6,6 km/h (2 Bft) SW 0,00 h 6,0 C 6,6 C 7,8 km/h (2 Bft)
05.01.2023 20:00 8,3 C 10,5 C 6,1 C 7,9 C 7,3 C 0,0 C 85 % 90 % 1019,9 hPa 0,0 l/m 5,3 km/h (1 Bft) SW 0,00 h 5,8 C 6,6 C 6,8 km/h (2 Bft)
05.01.2023 21:00 8,0 C 10,6 C 5,8 C 7,9 C 7,7 C 0,0 C 86 % 91 % 1020,1 hPa 0,0 l/m 1,4 km/h (1 Bft) W-SW 0,00 h 5,8 C 7,6 C 1,6 km/h (1 Bft)
05.01.2023 22:00 7,5 C 10,6 C 5,4 C 7,4 C 7,1 C 0,0 C 86 % 91 % 1020,4 hPa 0,0 l/m 0,2 km/h (0 Bft) N 0,00 h 5,4 C 7,1 C 0,0 km/h (0 Bft)
05.01.2023 23:00 7,1 C 10,6 C 4,9 C 7,0 C 6,8 C 0,0 C 87 % 92 % 1020,4 hPa 0,0 l/m 0,0 km/h (0 Bft) N 0,00 h 5,2 C 6,8 C 0,0 km/h (0 Bft)
06.01.2023 00:00 6,6 C 10,6 C 4,3 C 6,4 C 6,1 C 0,0 C 88 % 93 % 1020,7 hPa 0,0 l/m 0,0 km/h (0 Bft) N 0,00 h 4,7 C 6,1 C 0,0 km/h (0 Bft)
06.01.2023 01:00 5,7 C 10,5 C 3,1 C 5,7 C 5,5 C 0,1 C 88 % 93 % 1020,2 hPa 0,0 l/m 0,0 km/h (0 Bft) N 0,00 h 3,9 C 5,5 C 0,0 km/h (0 Bft)
06.01.2023 02:00 5,5 C 10,5 C 3,6 C 5,7 C 5,7 C 0,1 C 88 % 93 % 1019,9 hPa 0,0 l/m 0,0 km/h (0 Bft) N 0,00 h 3,8 C 5,7 C 0,0 km/h (0 Bft)
06.01.2023 03:00 5,6 C 10,5 C 3,9 C 6,0 C 6,0 C 0,5 C 89 % 93 % 1019,4 hPa 0,0 l/m 0,1 km/h (0 Bft) N 0,00 h 3,9 C 6,0 C 0,0 km/h (0 Bft)
06.01.2023 04:00 5,9 C 10,4 C 4,5 C 6,6 C 6,6 C 0,7 C 89 % 93 % 1018,6 hPa 0,0 l/m 0,0 km/h (0 Bft) N 0,00 h 4,3 C 6,6 C 0,0 km/h (0 Bft)
06.01.2023 05:00 6,3 C 10,4 C 4,8 C 7,0 C 7,0 C 0,7 C 89 % 93 % 1018,2 hPa 0,0 l/m 0,3 km/h (0 Bft) SO 0,00 h 4,6 C 7,0 C 0,9 km/h (0 Bft)
06.01.2023 06:00 6,9 C 10,4 C 5,6 C 7,8 C 7,8 C 0,9 C 88 % 93 % 1017,7 hPa 0,0 l/m 3,2 km/h (1 Bft) S 0,00 h 5,2 C 7,8 C 6,0 km/h (2 Bft)
06.01.2023 07:00 7,5 C 10,4 C 6,3 C 7,8 C 7,8 C 0,3 C 88 % 94 % 1017,2 hPa 0,0 l/m 5,3 km/h (1 Bft) S-SO 0,00 h 5,7 C 7,2 C 7,3 km/h (2 Bft)
06.01.2023 08:00 8,1 C 10,4 C 6,5 C 8,4 C 8,3 C 0,3 C 89 % 94 % 1017,9 hPa 0,0 l/m 3,8 km/h (1 Bft) S 0,17 h 6,4 C 8,2 C 6,1 km/h (2 Bft)
06.01.2023 09:00 8,8 C 10,4 C 7,1 C 9,0 C 9,0 C 0,2 C 88 % 93 % 1017,2 hPa 0,0 l/m 3,3 km/h (1 Bft) S 0,00 h 7,0 C 8,8 C 5,9 km/h (2 Bft)
06.01.2023 10:00 10,2 C 10,3 C 8,3 C 11,0 C 11,0 C 0,9 C 88 % 92 % 1017,8 hPa 0,0 l/m 2,9 km/h (1 Bft) S 0,00 h 8,2 C 11,0 C 4,0 km/h (1 Bft)
06.01.2023 11:00 10,9 C 10,1 C 9,0 C 11,6 C 11,6 C 0,7 C 85 % 89 % 1017,2 hPa 0,0 l/m 1,8 km/h (1 Bft) S-SW 0,00 h 8,5 C 11,6 C 3,9 km/h (1 Bft)
06.01.2023 12:00 10,7 C 10,2 C 8,7 C 11,3 C 11,3 C 0,6 C 83 % 89 % 1017,0 hPa 0,7 l/m 1,0 km/h (0 Bft) SW 0,00 h 7,9 C 11,3 C 2,0 km/h (1 Bft)
06.01.2023 13:00 10,6 C 10,2 C 8,6 C 10,9 C 10,7 C 0,3 C 81 % 88 % 1016,8 hPa 0,0 l/m 6,6 km/h (2 Bft) SW 0,00 h 7,4 C 10,6 C 11,3 km/h (2 Bft)
06.01.2023 14:00 11,3 C 10,2 C 9,1 C 13,2 C 13,2 C 1,9 C 74 % 81 % 1016,6 hPa 0,0 l/m 8,3 km/h (2 Bft) SW 0,25 h 6,9 C 13,2 C 10,1 km/h (2 Bft)
06.01.2023 15:00 10,9 C 10,2 C 8,8 C 11,1 C 11,0 C 0,2 C 75 % 80 % 1016,9 hPa 0,0 l/m 5,1 km/h (1 Bft) SW 0,00 h 6,6 C 11,0 C 9,2 km/h (2 Bft)
06.01.2023 16:00 10,5 C 10,3 C 8,4 C 10,7 C 10,7 C 0,1 C 76 % 80 % 1017,5 hPa 0,0 l/m 4,0 km/h (1 Bft) SW 0,17 h 6,5 C 10,7 C 6,1 km/h (2 Bft)
06.01.2023 17:00 10,0 C 10,4 C 7,9 C 10,0 C 9,9 C 0,1 C 79 % 83 % 1018,1 hPa 0,0 l/m 3,3 km/h (1 Bft) SW 0,00 h 6,5 C 9,9 C 6,4 km/h (2 Bft)
06.01.2023 18:00 9,9 C 10,4 C 7,8 C 10,0 C 10,0 C 0,2 C 80 % 83 % 1018,4 hPa 0,0 l/m 3,8 km/h (1 Bft) SW 0,00 h 6,6 C 10,0 C 6,0 km/h (2 Bft)
06.01.2023 19:00 9,4 C 10,4 C 7,2 C 9,4 C 9,2 C 0,1 C 81 % 85 % 1018,8 hPa 0,0 l/m 1,6 km/h (1 Bft) SW 0,00 h 6,3 C 9,2 C 3,2 km/h (1 Bft)
06.01.2023 20:00 8,6 C 10,4 C 6,1 C 8,4 C 8,0 C 0,0 C 82 % 87 % 1019,1 hPa 0,0 l/m 1,1 km/h (0 Bft) S 0,00 h 5,8 C 8,0 C 2,0 km/h (1 Bft)
06.01.2023 21:00 8,4 C 10,5 C 6,1 C 8,3 C 8,1 C 0,0 C 83 % 88 % 1019,2 hPa 0,0 l/m 0,5 km/h (0 Bft) O 0,00 h 5,7 C 8,1 C 2,0 km/h (1 Bft)
06.01.2023 22:00 8,6 C 10,4 C 6,4 C 8,6 C 8,6 C 0,1 C 84 % 88 % 1019,4 hPa 0,0 l/m 0,9 km/h (0 Bft) S-SO 0,00 h 6,0 C 8,6 C 2,4 km/h (1 Bft)
06.01.2023 23:00 8,8 C 10,4 C 6,7 C 8,9 C 8,9 C 0,2 C 83 % 86 % 1019,5 hPa 0,0 l/m 1,0 km/h (0 Bft) S-SO 0,00 h 6,1 C 8,9 C 2,2 km/h (1 Bft)
07.01.2023 00:00 8,7 C 10,4 C 6,7 C 8,8 C 8,8 C 0,1 C 83 % 86 % 1019,4 hPa 0,0 l/m 1,9 km/h (1 Bft) S 0,00 h 6,0 C 8,8 C 3,7 km/h (1 Bft)
07.01.2023 01:00 8,8 C 10,4 C 6,6 C 8,7 C 8,6 C 0,0 C 83 % 87 % 1019,2 hPa 0,0 l/m 2,2 km/h (1 Bft) S 0,00 h 6,1 C 8,6 C 4,6 km/h (1 Bft)
07.01.2023 02:00 8,7 C 10,4 C 6,4 C 8,5 C 8,2 C 0,0 C 83 % 86 % 1019,0 hPa 0,0 l/m 1,4 km/h (1 Bft) W-SW 0,00 h 5,9 C 8,2 C 3,8 km/h (1 Bft)
07.01.2023 03:00 8,0 C 10,4 C 5,5 C 7,7 C 7,2 C 0,0 C 83 % 88 % 1018,8 hPa 0,0 l/m 0,3 km/h (0 Bft) N 0,00 h 5,3 C 7,2 C 0,8 km/h (0 Bft)
07.01.2023 04:00 8,1 C 10,3 C 6,0 C 8,1 C 8,0 C 0,0 C 84 % 88 % 1018,1 hPa 0,0 l/m 1,0 km/h (0 Bft) SO 0,00 h 5,6 C 8,0 C 1,9 km/h (1 Bft)
07.01.2023 05:00 8,3 C 10,3 C 6,1 C 8,3 C 8,3 C 0,1 C 84 % 87 % 1017,8 hPa 0,0 l/m 2,5 km/h (1 Bft) S-SO 0,00 h 5,7 C 8,3 C 3,3 km/h (1 Bft)
07.01.2023 06:00 8,6 C 10,3 C 6,6 C 8,9 C 8,9 C 0,2 C 83 % 86 % 1017,5 hPa 0,0 l/m 3,0 km/h (1 Bft) S 0,00 h 5,9 C 8,9 C 4,5 km/h (1 Bft)
07.01.2023 07:00 8,8 C 10,2 C 6,7 C 8,9 C 8,8 C 0,1 C 82 % 85 % 1017,0 hPa 0,0 l/m 3,2 km/h (1 Bft) S-SO 0,00 h 5,8 C 8,7 C 6,0 km/h (2 Bft)
07.01.2023 08:00 8,8 C 10,2 C 6,7 C 8,8 C 8,8 C 0,1 C 81 % 84 % 1017,3 hPa 0,0 l/m 3,2 km/h (1 Bft) S-SO 0,00 h 5,7 C 8,7 C 5,2 km/h (1 Bft)
07.01.2023 09:00 8,9 C 10,2 C 6,9 C 9,4 C 9,4 C 0,5 C 80 % 84 % 1017,3 hPa 0,0 l/m 2,1 km/h (1 Bft) S-SO 0,00 h 5,7 C 9,4 C 4,2 km/h (1 Bft)
07.01.2023 10:00 9,3 C 10,2 C 7,8 C 10,0 C 10,0 C 0,6 C 79 % 81 % 1017,3 hPa 0,0 l/m 4,8 km/h (1 Bft) S-SO 0,00 h 5,9 C 9,8 C 8,2 km/h (2 Bft)
07.01.2023 11:00 10,1 C 10,2 C 8,7 C 11,3 C 11,3 C 1,2 C 76 % 77 % 1017,1 hPa 0,0 l/m 4,5 km/h (1 Bft) SO 0,00 h 6,0 C 11,3 C 7,3 km/h (2 Bft)
07.01.2023 12:00 10,4 C 10,2 C 9,1 C 11,9 C 11,9 C 1,4 C 73 % 74 % 1016,6 hPa 0,0 l/m 2,4 km/h (1 Bft) S 0,00 h 5,8 C 11,9 C 4,4 km/h (1 Bft)
07.01.2023 13:00 10,5 C 10,2 C 8,9 C 11,4 C 11,4 C 1,0 C 71 % 74 % 1016,0 hPa 0,0 l/m 2,0 km/h (1 Bft) S-SO 0,00 h 5,5 C 11,4 C 3,7 km/h (1 Bft)
07.01.2023 14:00 10,4 C 10,2 C 8,7 C 10,9 C 10,9 C 0,6 C 71 % 73 % 1015,0 hPa 0,0 l/m 0,3 km/h (0 Bft) O-NO 0,00 h 5,3 C 10,9 C 0,0 km/h (0 Bft)
07.01.2023 15:00 10,4 C 10,3 C 8,5 C 11,0 C 11,0 C 0,6 C 72 % 74 % 1014,3 hPa 0,0 l/m 0,0 km/h (0 Bft) N 0,00 h 5,5 C 11,0 C 0,3 km/h (0 Bft)
07.01.2023 16:00 10,1 C 10,3 C 7,9 C 10,1 C 10,1 C 0,1 C 71 % 74 % 1014,6 hPa 0,0 l/m 0,2 km/h (0 Bft) N 0,00 h 5,1 C 10,1 C 0,0 km/h (0 Bft)
07.01.2023 17:00 9,5 C 10,3 C 7,3 C 9,5 C 9,4 C 0,0 C 72 % 76 % 1013,9 hPa 0,0 l/m 0,0 km/h (0 Bft) N 0,00 h 4,6 C 9,4 C 0,0 km/h (0 Bft)
07.01.2023 18:00 9,2 C 10,3 C 7,1 C 9,3 C 9,3 C 0,0 C 73 % 77 % 1013,7 hPa 0,0 l/m 0,0 km/h (0 Bft) N 0,00 h 4,7 C 9,3 C 0,0 km/h (0 Bft)
07.01.2023 19:00 9,1 C 10,3 C 6,9 C 9,1 C 9,0 C 0,0 C 73 % 77 % 1013,3 hPa 0,0 l/m 0,1 km/h (0 Bft) N 0,00 h 4,5 C 9,0 C 0,7 km/h (0 Bft)
07.01.2023 20:00 8,6 C 10,3 C 6,1 C 8,4 C 8,0 C 0,0 C 73 % 78 % 1013,0 hPa 0,0 l/m 0,1 km/h (0 Bft) N 0,00 h 4,2 C 8,0 C 0,4 km/h (0 Bft)
07.01.2023 21:00 7,1 C 10,3 C 3,9 C 6,6 C 5,6 C 0,0 C 76 % 82 % 1012,9 hPa 0,0 l/m 0,0 km/h (0 Bft) N 0,00 h 3,1 C 5,6 C 0,0 km/h (0 Bft)
07.01.2023 22:00 5,2 C 10,3 C 1,8 C 4,7 C 3,9 C 0,0 C 80 % 87 % 1012,4 hPa 0,0 l/m 0,0 km/h (0 Bft) N 0,00 h 2,0 C 3,9 C 0,0 km/h (0 Bft)
07.01.2023 23:00 4,0 C 10,4 C 1,0 C 3,6 C 2,7 C 0,0 C 83 % 89 % 1011,6 hPa 0,0 l/m 0,0 km/h (0 Bft) N 0,00 h 1,3 C 2,7 C 0,0 km/h (0 Bft)
08.01.2023 00:00 3,2 C 10,5 C 0,6 C 2,9 C 2,3 C 0,0 C 85 % 91 % 1011,1 hPa 0,0 l/m 0,0 km/h (0 Bft) N 0,00 h 0,9 C 2,3 C 0,0 km/h (0 Bft)
08.01.2023 01:00 3,1 C 10,4 C 0,5 C 2,9 C 2,5 C 0,0 C 86 % 91 % 1010,4 hPa 0,0 l/m 0,0 km/h (0 Bft) N 0,00 h 1,0 C 2,5 C 0,0 km/h (0 Bft)
08.01.2023 02:00 3,5 C 10,2 C 0,4 C 3,5 C 3,3 C 0,0 C 87 % 92 % 1009,8 hPa 0,0 l/m 0,0 km/h (0 Bft) N 0,00 h 1,6 C 3,3 C 0,0 km/h (0 Bft)
08.01.2023 03:00 2,9 C 10,2 C -0,2 C 2,5 C 1,9 C 0,0 C 86 % 92 % 1009,4 hPa 0,0 l/m 0,0 km/h (0 Bft) N 0,00 h 0,8 C 1,9 C 0,0 km/h (0 Bft)
08.01.2023 04:00 2,7 C 10,1 C -0,2 C 2,6 C 2,4 C 0,0 C 87 % 92 % 1008,8 hPa 0,0 l/m 0,0 km/h (0 Bft) N 0,00 h 0,8 C 2,4 C 0,0 km/h (0 Bft)
08.01.2023 05:00 2,5 C 10,0 C -0,3 C 2,3 C 2,1 C 0,0 C 87 % 92 % 1008,8 hPa 0,0 l/m 0,0 km/h (0 Bft) N 0,00 h 0,6 C 2,1 C 0,0 km/h (0 Bft)
08.01.2023 06:00 5,0 C 9,6 C 2,2 C 5,5 C 5,5 C 0,5 C 88 % 92 % 1008,0 hPa 0,0 l/m 0,3 km/h (0 Bft) N 0,00 h 3,1 C 5,5 C 0,9 km/h (0 Bft)
08.01.2023 07:00 5,6 C 9,5 C 2,6 C 5,6 C 5,5 C 0,0 C 83 % 89 % 1007,7 hPa 0,0 l/m 0,0 km/h (0 Bft) N 0,00 h 2,9 C 5,5 C 0,0 km/h (0 Bft)
08.01.2023 08:00 5,4 C 9,5 C 2,8 C 5,7 C 5,7 C 0,4 C 84 % 90 % 1007,7 hPa 0,0 l/m 0,0 km/h (0 Bft) N 0,42 h 2,8 C 5,7 C 0,0 km/h (0 Bft)
08.01.2023 09:00 7,4 C 9,4 C 5,1 C 7,8 C 7,8 C 0,4 C 82 % 86 % 1007,1 hPa 0,0 l/m 0,0 km/h (0 Bft) N 0,00 h 4,5 C 7,8 C 0,5 km/h (0 Bft)
08.01.2023 10:00 7,9 C 9,4 C 5,7 C 8,2 C 8,2 C 0,3 C 79 % 82 % 1007,2 hPa 0,0 l/m 0,0 km/h (0 Bft) N 0,00 h 4,4 C 8,2 C 0,0 km/h (0 Bft)
08.01.2023 11:00 8,4 C 9,4 C 6,4 C 9,0 C 9,0 C 0,6 C 77 % 81 % 1007,3 hPa 0,0 l/m 1,3 km/h (1 Bft) S-SO 0,00 h 4,6 C 9,0 C 3,5 km/h (1 Bft)
08.01.2023 12:00 9,4 C 9,4 C 7,3 C 9,9 C 9,9 C 0,5 C 73 % 77 % 1006,9 hPa 0,0 l/m 2,2 km/h (1 Bft) S-SO 0,00 h 4,8 C 9,9 C 3,0 km/h (1 Bft)
08.01.2023 13:00 9,4 C 9,5 C 7,4 C 9,8 C 9,7 C 0,3 C 73 % 76 % 1006,6 hPa 0,0 l/m 3,5 km/h (1 Bft) S-SO 0,00 h 4,8 C 9,6 C 5,5 km/h (1 Bft)
08.01.2023 14:00 9,5 C 9,4 C 7,5 C 9,9 C 9,9 C 0,5 C 74 % 77 % 1006,0 hPa 0,0 l/m 2,7 km/h (1 Bft) S 0,00 h 5,1 C 9,9 C 3,7 km/h (1 Bft)
08.01.2023 15:00 9,4 C 9,5 C 7,3 C 9,6 C 9,5 C 0,1 C 76 % 79 % 1005,7 hPa 0,0 l/m 3,7 km/h (1 Bft) S-SO 0,00 h 5,4 C 9,3 C 6,3 km/h (2 Bft)
08.01.2023 16:00 9,2 C 9,6 C 6,9 C 9,2 C 9,1 C 0,1 C 77 % 80 % 1006,1 hPa 0,0 l/m 4,2 km/h (1 Bft) S-SO 0,08 h 5,4 C 9,0 C 6,3 km/h (2 Bft)
08.01.2023 17:00 8,8 C 9,7 C 6,0 C 8,7 C 8,5 C 0,0 C 78 % 82 % 1005,6 hPa 0,0 l/m 2,3 km/h (1 Bft) S 0,00 h 5,1 C 8,5 C 2,7 km/h (1 Bft)
08.01.2023 18:00 8,3 C 9,7 C 5,5 C 8,2 C 8,0 C 0,0 C 79 % 84 % 1005,2 hPa 0,0 l/m 0,3 km/h (0 Bft) S 0,00 h 4,9 C 8,0 C 0,5 km/h (0 Bft)
08.01.2023 19:00 7,9 C 9,7 C 4,7 C 7,6 C 7,2 C 0,0 C 80 % 85 % 1004,4 hPa 0,0 l/m 0,1 km/h (0 Bft) N 0,00 h 4,6 C 7,2 C 0,0 km/h (0 Bft)
08.01.2023 20:00 6,9 C 9,8 C 3,6 C 6,7 C 6,3 C 0,0 C 81 % 87 % 1004,0 hPa 0,0 l/m 0,0 km/h (0 Bft) N 0,00 h 3,9 C 6,3 C 0,0 km/h (0 Bft)
08.01.2023 21:00 6,1 C 9,8 C 2,8 C 5,9 C 5,3 C 0,0 C 82 % 88 % 1003,6 hPa 0,0 l/m 0,0 km/h (0 Bft) N 0,00 h 3,3 C 5,3 C 0,0 km/h (0 Bft)
08.01.2023 22:00 5,0 C 10,0 C 1,8 C 4,8 C 4,3 C 0,0 C 84 % 90 % 1002,9 hPa 0,0 l/m 0,0 km/h (0 Bft) N 0,00 h 2,5 C 4,3 C 0,0 km/h (0 Bft)
08.01.2023 23:00 4,0 C 10,0 C 1,0 C 3,7 C 3,2 C 0,0 C 85 % 91 % 1002,1 hPa 0,0 l/m 0,0 km/h (0 Bft) N 0,00 h 1,7 C 3,2 C 0,0 km/h (0 Bft)
Min-Datum _ 08.01.23 04.01.23 08.01.23 08.01.23 08.01.23 02.01.23 02.01.23 02.01.23 08.01.23 - 02.01.23 - - 08.01.23 04.01.23 02.01.23
_ Min-Zeit 04:50 11:35 03:40 05:30 03:20 02:41 13:20 13:15 23:45 - 00:00 - - 04:50 09:35 00:00
Minimum _ 2,4 C 9,2 C -0,6 C 2,2 C 1,6 C 0,0 C 50 % 51 % 1002,0 hPa - 0,0 km/h (0 Bft) - - 0,5 C 0,8 C 0,0 km/h (0 Bft)
Max-Datum _ 02.01.23 02.01.23 02.01.23 02.01.23 02.01.23 03.01.23 06.01.23 06.01.23 03.01.23 02.01.23 05.01.23 - 03.01.23 06.01.23 02.01.23 04.01.23
_ Max-Zeit 13:20 20:45 13:15 13:15 13:15 14:26 02:45 06:50 20:05 21:10 03:20 - 14:26 10:55 13:15 14:35
Maximum _ 16,8 C 12,4 C 15,1 C 19,1 C 19,1 C 3,9 C 89 % 94 % 1029,4 hPa 0,7 l/m 15,6 km/h
SW (3 Bft)
- 0,25 h 8,8 C 19,1 C 35,7 km/h
S-SO (5 Bft)
Durchschnitt _ 8,9 C 10,4 C 6,5 C 8,9 C 8,5 C 0,2 C 78 % 83 % 1016,9 hPa #2,1 l/m 3,9 km/h (1 Bft) SW #1:20 h 5,1 C 8,1 C 5,5 km/h (1 Bft)
2023 www.wetterstation-wechselburg.de